Time;durP1;ratioP1;P1;durP2;ratioP2;P2;SDS_P1;SDS_P2;PMS_P1;PMS_P2;Temp;Humidity;BMP_temperature;BMP_pressure;BME280_temperature;BME280_humidity;BME280_pressure;Samples;Min_cycle;Max_cycle;Signal;HPM_P1;HPM_P2
2022/01/12 00:00:18;;;;;;;;;;;22.10;47.50;;;;;;5113034;28;20027;-40
2022/01/12 00:02:45;;;;;;;;;;;22.10;47.50;;;;;;5131477;28;19927;-39
2022/01/12 00:05:14;;;;;;;;;;;22.10;47.50;;;;;;5113957;28;19973;-41
2022/01/12 00:07:41;;;;;;;;;;;22.00;47.40;;;;;;5113038;28;19928;-44
2022/01/12 00:10:09;;;;;;;;;;;22.00;47.40;;;;;;5114130;28;20014;-41
2022/01/12 00:12:36;;;;;;;;;;;22.00;47.40;;;;;;5113340;28;20367;-42
2022/01/12 00:15:03;;;;;;;;;;;22.00;47.40;;;;;;5114147;28;20325;-40
2022/01/12 00:17:30;;;;;;;;;;;22.00;47.40;;;;;;5113747;28;19946;-41
2022/01/12 00:19:57;;;;;;;;;;;22.00;47.40;;;;;;5101194;28;19931;-40
2022/01/12 00:22:24;;;;;;;;;;;22.00;47.40;;;;;;5092505;28;19971;-40
2022/01/12 00:25:10;;;;;;;;;;;22.00;47.50;;;;;;5092710;28;19924;-41
2022/01/12 00:35:36;;;;;;;;;;;22.00;47.40;;;;;;5098543;28;20032;-40
2022/01/12 00:38:03;;;;;;;;;;;22.00;47.50;;;;;;5096997;28;20446;-40
2022/01/12 00:40:30;;;;;;;;;;;22.00;47.50;;;;;;5095863;28;19924;-42
2022/01/12 00:42:58;;;;;;;;;;;22.00;47.50;;;;;;5098349;28;20015;-40
2022/01/12 00:45:25;;;;;;;;;;;22.00;47.50;;;;;;5096927;28;20395;-39
2022/01/12 00:47:52;;;;;;;;;;;22.00;47.50;;;;;;5096307;28;20429;-41
2022/01/12 00:50:19;;;;;;;;;;;22.00;47.50;;;;;;5095764;28;19924;-43
2022/01/12 00:52:48;;;;;;;;;;;22.00;47.50;;;;;;5096963;28;19924;-41
2022/01/12 00:55:15;;;;;;;;;;;22.00;47.50;;;;;;5097886;28;19995;-42
2022/01/12 00:57:42;;;;;;;;;;;22.00;47.50;;;;;;5086325;28;19936;-40
2022/01/12 01:00:10;;;;;;;;;;;22.00;47.50;;;;;;5106004;28;19924;-39
2022/01/12 01:02:37;;;;;;;;;;;21.90;47.40;;;;;;5096780;28;19924;-41
2022/01/12 01:05:04;;;;;;;;;;;21.90;47.40;;;;;;5099918;28;19927;-39
2022/01/12 01:07:31;;;;;;;;;;;21.90;47.40;;;;;;5108785;28;19928;-40
2022/01/12 01:10:05;;;;;;;;;;;21.90;47.40;;;;;;5095588;28;19977;-40
2022/01/12 01:12:34;;;;;;;;;;;21.90;47.40;;;;;;5095670;28;19924;-41
2022/01/12 01:15:07;;;;;;;;;;;21.90;47.40;;;;;;5096635;28;20002;-41
2022/01/12 01:25:38;;;;;;;;;;;21.90;47.40;;;;;;5097183;28;19978;-41
2022/01/12 01:28:05;;;;;;;;;;;21.90;47.40;;;;;;5096443;28;19924;-40
2022/01/12 01:30:37;;;;;;;;;;;21.90;47.40;;;;;;5097543;28;19971;-41
2022/01/12 01:33:07;;;;;;;;;;;21.90;47.40;;;;;;5097284;28;19923;-45
2022/01/12 01:35:43;;;;;;;;;;;21.90;47.40;;;;;;5094896;28;19962;-43
2022/01/12 01:38:10;;;;;;;;;;;21.90;47.40;;;;;;5097089;28;20018;-42
2022/01/12 01:40:38;;;;;;;;;;;21.90;47.40;;;;;;5111427;28;19924;-42
2022/01/12 01:53:51;;;;;;;;;;;21.80;47.30;;;;;;5094682;28;19924;-46
2022/01/12 01:56:21;;;;;;;;;;;21.80;47.30;;;;;;5100552;28;19967;-40
2022/01/12 01:58:48;;;;;;;;;;;21.90;47.40;;;;;;5108382;28;19932;-42
2022/01/12 02:01:15;;;;;;;;;;;21.80;47.30;;;;;;5095547;28;20013;-39
2022/01/12 02:03:44;;;;;;;;;;;21.80;47.90;;;;;;5094773;28;19924;-40
2022/01/12 02:06:11;;;;;;;;;;;21.80;47.30;;;;;;5097260;28;19924;-39
2022/01/12 02:08:38;;;;;;;;;;;21.80;47.30;;;;;;5112494;28;19932;-39
2022/01/12 02:11:05;;;;;;;;;;;21.90;47.40;;;;;;5094630;28;19946;-40
2022/01/12 02:13:33;;;;;;;;;;;21.80;47.30;;;;;;5095494;28;19963;-40
2022/01/12 02:15:59;;;;;;;;;;;21.80;47.30;;;;;;5095576;28;19928;-43
2022/01/12 02:40:29;;;;;;;;;;;21.80;47.40;;;;;;5095344;28;20368;-44
2022/01/12 02:51:29;;;;;;;;;;;21.80;47.40;;;;;;5094530;28;19928;-39
2022/01/12 02:53:56;;;;;;;;;;;21.70;47.30;;;;;;5094409;28;19970;-41
2022/01/12 02:56:24;;;;;;;;;;;21.80;48.00;;;;;;5094431;28;19978;-40
2022/01/12 02:58:51;;;;;;;;;;;21.70;47.30;;;;;;5096147;28;19986;-43
2022/01/12 03:04:03;;;;;;;;;;;21.70;47.30;;;;;;5094861;28;19924;-40
2022/01/12 03:06:34;;;;;;;;;;;21.70;47.30;;;;;;5093760;28;19932;-42
2022/01/12 03:09:03;;;;;;;;;;;21.80;47.40;;;;;;5095442;28;19975;-45
2022/01/12 03:11:31;;;;;;;;;;;21.70;47.30;;;;;;5094524;28;20399;-39
2022/01/12 03:13:59;;;;;;;;;;;21.70;47.30;;;;;;5095720;28;19924;-41
2022/01/12 03:16:27;;;;;;;;;;;21.70;47.30;;;;;;5095512;28;19955;-44
2022/01/12 03:18:58;;;;;;;;;;;21.70;47.30;;;;;;5099090;28;19962;-42
2022/01/12 03:21:28;;;;;;;;;;;21.70;47.30;;;;;;5114316;28;19963;-41
2022/01/12 03:23:55;;;;;;;;;;;21.70;47.30;;;;;;5113108;28;19923;-41
2022/01/12 03:26:25;;;;;;;;;;;21.70;47.30;;;;;;5113310;28;20365;-41
2022/01/12 03:28:54;;;;;;;;;;;21.70;47.30;;;;;;5118263;27;19995;-40
2022/01/12 03:31:23;;;;;;;;;;;21.70;47.30;;;;;;5126273;27;19924;-43
2022/01/12 03:33:56;;;;;;;;;;;21.70;47.30;;;;;;5116631;28;19973;-41
2022/01/12 03:36:29;;;;;;;;;;;21.70;47.30;;;;;;5128456;28;19927;-40
2022/01/12 03:38:57;;;;;;;;;;;21.70;47.30;;;;;;5114647;28;20336;-41
2022/01/12 03:41:25;;;;;;;;;;;21.70;47.30;;;;;;5114423;28;20440;-40
2022/01/12 03:43:53;;;;;;;;;;;21.70;47.30;;;;;;5114984;28;20313;-41
2022/01/12 03:46:25;;;;;;;;;;;21.70;47.30;;;;;;5131794;28;19932;-41
2022/01/12 03:48:52;;;;;;;;;;;21.70;47.30;;;;;;5115082;28;20335;-40
2022/01/12 03:51:20;;;;;;;;;;;21.70;47.30;;;;;;5133180;28;19957;-40
2022/01/12 03:53:48;;;;;;;;;;;21.70;47.30;;;;;;5113208;28;19945;-41
2022/01/12 03:56:15;;;;;;;;;;;21.70;47.30;;;;;;5113564;28;19928;-42
2022/01/12 03:58:42;;;;;;;;;;;21.70;47.30;;;;;;5131384;28;19924;-40
2022/01/12 04:01:10;;;;;;;;;;;21.70;47.30;;;;;;5114084;28;19946;-41
2022/01/12 04:03:44;;;;;;;;;;;21.70;47.30;;;;;;5114582;28;19923;-39
2022/01/12 04:08:56;;;;;;;;;;;21.60;47.30;;;;;;5117306;28;19949;-39
2022/01/12 04:11:23;;;;;;;;;;;21.60;47.30;;;;;;5117343;28;20295;-45
2022/01/12 04:13:50;;;;;;;;;;;21.70;47.40;;;;;;5118182;27;19923;-39
2022/01/12 04:16:17;;;;;;;;;;;21.60;47.30;;;;;;5117238;28;20533;-40
2022/01/12 04:18:44;;;;;;;;;;;21.60;47.30;;;;;;5119505;27;19924;-40
2022/01/12 04:21:13;;;;;;;;;;;21.60;47.30;;;;;;5117858;27;19924;-41
2022/01/12 04:23:41;;;;;;;;;;;21.60;47.30;;;;;;5128951;27;19930;-39
2022/01/12 04:26:11;;;;;;;;;;;21.60;47.30;;;;;;5120476;27;19924;-42
2022/01/12 04:28:39;;;;;;;;;;;21.60;47.30;;;;;;5118133;27;20346;-40
2022/01/12 04:31:06;;;;;;;;;;;21.60;47.30;;;;;;5118018;27;19924;-41
2022/01/12 04:33:35;;;;;;;;;;;21.60;47.30;;;;;;5117511;27;19923;-42
2022/01/12 04:36:03;;;;;;;;;;;21.60;47.30;;;;;;5119111;27;19974;-43
2022/01/12 04:38:33;;;;;;;;;;;21.60;47.30;;;;;;5119150;27;20329;-39
2022/01/12 04:41:01;;;;;;;;;;;21.60;47.30;;;;;;5117735;27;19924;-44
2022/01/12 04:43:29;;;;;;;;;;;21.60;47.30;;;;;;5117265;27;19924;-40
2022/01/12 04:46:09;;;;;;;;;;;21.60;47.30;;;;;;5117554;27;20035;-40
2022/01/12 04:51:10;;;;;;;;;;;21.60;47.30;;;;;;5117346;27;19977;-40
2022/01/12 04:53:37;;;;;;;;;;;21.60;47.30;;;;;;5117447;27;19994;-41
2022/01/12 04:56:04;;;;;;;;;;;21.60;47.30;;;;;;5118367;27;19924;-40
2022/01/12 04:58:31;;;;;;;;;;;21.60;47.30;;;;;;5117060;27;20349;-39
2022/01/12 05:01:05;;;;;;;;;;;21.60;47.30;;;;;;5117213;27;19963;-41
2022/01/12 05:06:40;;;;;;;;;;;21.60;47.30;;;;;;5116499;27;20019;-39
2022/01/12 05:14:44;;;;;;;;;;;21.50;47.30;;;;;;5117030;27;20294;-39
2022/01/12 05:17:11;;;;;;;;;;;21.50;47.30;;;;;;5119198;27;19949;-42
2022/01/12 05:19:38;;;;;;;;;;;21.50;47.30;;;;;;5098870;28;19924;-40
2022/01/12 05:22:05;;;;;;;;;;;21.50;47.30;;;;;;5116816;27;19924;-38
2022/01/12 05:24:33;;;;;;;;;;;21.50;47.30;;;;;;5115139;28;19924;-39
2022/01/12 05:27:20;;;;;;;;;;;21.50;47.30;;;;;;5116960;27;20404;-39
2022/01/12 05:29:46;;;;;;;;;;;21.50;47.30;;;;;;5097049;28;20455;-39
2022/01/12 05:32:13;;;;;;;;;;;21.50;47.90;;;;;;5115347;28;19958;-41
2022/01/12 05:34:41;;;;;;;;;;;21.50;47.30;;;;;;5116692;27;19977;-40
2022/01/12 05:37:08;;;;;;;;;;;21.50;47.30;;;;;;5115450;27;19972;-41
2022/01/12 05:39:35;;;;;;;;;;;21.50;47.30;;;;;;5116635;27;20010;-42
2022/01/12 05:42:23;;;;;;;;;;;21.50;47.30;;;;;;5116189;27;19967;-41
2022/01/12 05:44:50;;;;;;;;;;;21.50;47.30;;;;;;5115047;28;20386;-40
2022/01/12 05:47:33;;;;;;;;;;;21.50;47.30;;;;;;5116701;27;19923;-41
2022/01/12 05:50:00;;;;;;;;;;;21.50;47.30;;;;;;5099895;28;19924;-41
2022/01/12 05:52:28;;;;;;;;;;;21.50;47.30;;;;;;5116024;27;19924;-40
2022/01/12 05:54:55;;;;;;;;;;;21.50;47.20;;;;;;5116807;27;19955;-40
2022/01/12 05:57:22;;;;;;;;;;;21.50;47.30;;;;;;5116293;27;19930;-40
2022/01/12 05:59:49;;;;;;;;;;;21.50;47.30;;;;;;5114807;28;20011;-42
2022/01/12 06:02:16;;;;;;;;;;;21.50;47.20;;;;;;5115293;27;20302;-40
2022/01/12 06:04:43;;;;;;;;;;;21.50;47.20;;;;;;5116058;27;19959;-42
2022/01/12 06:07:10;;;;;;;;;;;21.50;47.20;;;;;;5133131;27;20378;-40
2022/01/12 06:09:37;;;;;;;;;;;21.50;47.20;;;;;;5115941;27;19973;-41
2022/01/12 06:12:04;;;;;;;;;;;21.50;47.30;;;;;;5132580;27;20010;-41
2022/01/12 06:14:31;;;;;;;;;;;21.50;47.30;;;;;;5116254;28;19924;-41
2022/01/12 06:16:58;;;;;;;;;;;21.50;47.30;;;;;;5115797;27;20057;-41
2022/01/12 06:19:25;;;;;;;;;;;21.50;47.30;;;;;;5106276;28;19924;-42
2022/01/12 06:21:52;;;;;;;;;;;21.50;47.30;;;;;;5096610;28;20349;-40
2022/01/12 06:24:19;;;;;;;;;;;21.50;47.30;;;;;;5096302;28;19924;-41
2022/01/12 06:26:47;;;;;;;;;;;21.50;47.30;;;;;;5092941;28;19972;-43
2022/01/12 06:29:25;;;;;;;;;;;21.50;47.30;;;;;;5104570;28;20332;-43
2022/01/12 06:31:55;;;;;;;;;;;21.50;47.20;;;;;;5100836;28;19924;-44
2022/01/12 06:34:22;;;;;;;;;;;21.50;47.20;;;;;;5094193;28;19930;-40
2022/01/12 06:36:49;;;;;;;;;;;21.50;47.20;;;;;;5095098;28;20003;-42
2022/01/12 06:39:17;;;;;;;;;;;21.50;47.30;;;;;;5093957;28;20418;-41
2022/01/12 06:41:44;;;;;;;;;;;21.40;47.20;;;;;;5093913;28;19968;-45
2022/01/12 06:44:16;;;;;;;;;;;21.40;47.20;;;;;;5094700;28;20007;-42
2022/01/12 06:46:44;;;;;;;;;;;21.40;47.20;;;;;;5095029;28;19975;-43
2022/01/12 06:49:11;;;;;;;;;;;21.40;47.10;;;;;;5094880;28;20399;-40
2022/01/12 06:51:38;;;;;;;;;;;21.40;47.20;;;;;;5093869;28;19946;-41
2022/01/12 06:54:05;;;;;;;;;;;21.40;47.20;;;;;;5093368;28;20003;-43
2022/01/12 06:56:33;;;;;;;;;;;21.40;47.10;;;;;;5095577;28;19975;-44
2022/01/12 06:59:00;;;;;;;;;;;21.40;47.20;;;;;;5095588;28;19924;-42
2022/01/12 07:01:27;;;;;;;;;;;21.40;47.10;;;;;;5095968;28;20006;-40
2022/01/12 07:03:55;;;;;;;;;;;21.40;47.10;;;;;;5094852;28;19924;-43
2022/01/12 07:06:22;;;;;;;;;;;21.40;47.10;;;;;;5093027;28;19928;-41
2022/01/12 07:08:49;;;;;;;;;;;21.40;47.10;;;;;;5093553;28;19924;-40
2022/01/12 07:11:16;;;;;;;;;;;21.40;47.20;;;;;;5094381;28;20368;-42
2022/01/12 07:13:43;;;;;;;;;;;21.40;47.10;;;;;;5093541;28;19924;-41
2022/01/12 07:16:11;;;;;;;;;;;21.40;47.10;;;;;;5111218;28;20387;-40
2022/01/12 07:18:38;;;;;;;;;;;21.40;47.10;;;;;;5094995;28;19930;-41
2022/01/12 07:21:05;;;;;;;;;;;21.40;47.10;;;;;;5114539;27;19923;-40
2022/01/12 07:23:32;;;;;;;;;;;21.40;47.10;;;;;;5127638;27;20013;-40
2022/01/12 07:26:00;;;;;;;;;;;21.40;47.10;;;;;;5117005;27;19935;-41
2022/01/12 07:28:26;;;;;;;;;;;21.40;47.10;;;;;;5126698;28;19931;-40
2022/01/12 07:30:53;;;;;;;;;;;21.40;47.10;;;;;;5121561;27;20286;-40
2022/01/12 07:33:22;;;;;;;;;;;21.40;47.10;;;;;;5113230;28;19949;-42
2022/01/12 07:35:49;;;;;;;;;;;21.50;47.20;;;;;;5113072;28;19923;-43
2022/01/12 07:38:16;;;;;;;;;;;21.40;47.10;;;;;;5123693;27;19927;-44
2022/01/12 07:40:43;;;;;;;;;;;21.40;47.10;;;;;;5124178;28;19971;-41
2022/01/12 07:43:10;;;;;;;;;;;21.40;47.10;;;;;;5115728;28;19939;-45
2022/01/12 07:45:37;;;;;;;;;;;21.40;47.10;;;;;;5113012;28;19930;-42
2022/01/12 07:48:04;;;;;;;;;;;21.50;47.10;;;;;;5114417;28;19935;-40
2022/01/12 07:50:31;;;;;;;;;;;21.40;47.00;;;;;;5114317;28;20014;-42
2022/01/12 07:52:59;;;;;;;;;;;21.50;47.10;;;;;;5113099;28;19923;-40
2022/01/12 07:55:26;;;;;;;;;;;21.50;47.10;;;;;;5114228;28;19973;-41
2022/01/12 07:57:54;;;;;;;;;;;21.50;47.60;;;;;;5112921;28;19930;-42
2022/01/12 08:00:24;;;;;;;;;;;21.50;47.00;;;;;;5114692;28;19923;-40
2022/01/12 08:02:51;;;;;;;;;;;21.50;47.00;;;;;;5130826;28;20279;-43
2022/01/12 08:05:19;;;;;;;;;;;21.50;47.00;;;;;;5114311;28;20359;-40
2022/01/12 08:07:47;;;;;;;;;;;21.50;46.90;;;;;;5131295;28;20405;-40
2022/01/12 08:10:15;;;;;;;;;;;21.50;46.90;;;;;;5131445;28;19928;-42
2022/01/12 08:12:42;;;;;;;;;;;21.50;46.90;;;;;;5132252;28;19924;-42
2022/01/12 08:15:09;;;;;;;;;;;21.50;46.90;;;;;;5129964;28;19951;-43
2022/01/12 08:17:37;;;;;;;;;;;21.50;46.90;;;;;;5113865;28;19927;-39
2022/01/12 08:20:05;;;;;;;;;;;21.50;46.80;;;;;;5114902;28;20413;-39
2022/01/12 08:22:32;;;;;;;;;;;21.50;46.80;;;;;;5127446;28;20413;-40
2022/01/12 08:24:59;;;;;;;;;;;21.50;46.80;;;;;;5124107;28;20283;-42
2022/01/12 08:27:26;;;;;;;;;;;21.50;46.80;;;;;;5113908;28;19924;-40
2022/01/12 08:29:59;;;;;;;;;;;21.50;46.70;;;;;;5113670;28;19930;-41
2022/01/12 08:32:27;;;;;;;;;;;21.50;46.70;;;;;;5115184;28;19924;-41
2022/01/12 08:34:55;;;;;;;;;;;21.50;46.70;;;;;;5122468;28;20413;-40
2022/01/12 08:37:22;;;;;;;;;;;21.50;46.60;;;;;;5122149;28;19923;-41
2022/01/12 08:39:50;;;;;;;;;;;21.50;46.60;;;;;;5114591;28;19977;-39
2022/01/12 08:42:18;;;;;;;;;;;21.50;46.60;;;;;;5094415;28;19977;-41
2022/01/12 08:44:45;;;;;;;;;;;21.50;46.50;;;;;;5114245;28;19931;-42
2022/01/12 08:47:12;;;;;;;;;;;21.50;46.50;;;;;;5120749;28;19927;-41
2022/01/12 08:49:39;;;;;;;;;;;21.50;46.50;;;;;;5128678;28;19993;-39
2022/01/12 08:52:08;;;;;;;;;;;21.60;46.50;;;;;;5116267;27;19928;-40
2022/01/12 08:54:35;;;;;;;;;;;21.60;46.50;;;;;;5098561;28;19935;-41
2022/01/12 08:57:02;;;;;;;;;;;21.60;46.40;;;;;;5119108;27;19924;-40
2022/01/12 08:59:29;;;;;;;;;;;21.60;46.40;;;;;;5116309;28;20280;-39
2022/01/12 09:01:56;;;;;;;;;;;21.60;46.40;;;;;;5116104;28;19924;-45
2022/01/12 09:04:23;;;;;;;;;;;21.60;46.30;;;;;;5117889;27;19924;-41
2022/01/12 09:06:51;;;;;;;;;;;21.60;46.30;;;;;;5116296;28;19924;-40
2022/01/12 09:09:18;;;;;;;;;;;21.60;46.30;;;;;;5116658;27;19924;-41
2022/01/12 09:11:45;;;;;;;;;;;21.60;46.20;;;;;;5115906;28;19982;-42
2022/01/12 09:14:12;;;;;;;;;;;21.60;46.20;;;;;;5121817;27;19923;-44
2022/01/12 09:16:39;;;;;;;;;;;21.60;46.20;;;;;;5115989;28;19924;-43
2022/01/12 09:19:09;;;;;;;;;;;21.60;46.20;;;;;;5098875;28;20298;-44
2022/01/12 09:21:36;;;;;;;;;;;21.60;46.20;;;;;;5116967;27;19931;-40
2022/01/12 09:24:03;;;;;;;;;;;21.70;46.20;;;;;;5116453;27;19924;-44
2022/01/12 09:26:30;;;;;;;;;;;21.70;46.20;;;;;;5115381;28;20382;-41
2022/01/12 09:28:59;;;;;;;;;;;21.70;46.10;;;;;;5117133;27;19924;-40
2022/01/12 09:31:26;;;;;;;;;;;21.70;46.10;;;;;;5116394;27;19924;-41
2022/01/12 09:33:54;;;;;;;;;;;21.70;46.00;;;;;;5116752;27;19931;-40
2022/01/12 09:36:21;;;;;;;;;;;21.70;46.00;;;;;;5125728;27;19927;-43
2022/01/12 09:38:48;;;;;;;;;;;21.70;46.00;;;;;;5133078;27;19975;-41
2022/01/12 09:41:15;;;;;;;;;;;21.70;45.90;;;;;;5126293;27;19924;-41
2022/01/12 09:43:43;;;;;;;;;;;21.70;45.90;;;;;;5105657;27;19924;-42
2022/01/12 09:46:12;;;;;;;;;;;21.70;45.90;;;;;;5128378;27;19974;-40
2022/01/12 09:48:40;;;;;;;;;;;21.70;45.80;;;;;;5097449;28;20019;-39
2022/01/12 09:51:07;;;;;;;;;;;21.80;45.90;;;;;;5116719;27;20283;-41
2022/01/12 09:53:38;;;;;;;;;;;21.80;45.80;;;;;;5116004;27;19992;-43
2022/01/12 09:56:14;;;;;;;;;;;21.80;45.80;;;;;;5118475;27;19923;-43
2022/01/12 09:58:41;;;;;;;;;;;21.80;45.70;;;;;;5129970;27;20306;-39
2022/01/12 10:01:09;;;;;;;;;;;21.90;45.80;;;;;;5114190;28;20379;-42
2022/01/12 10:03:37;;;;;;;;;;;21.80;45.60;;;;;;5115009;27;19977;-39
2022/01/12 10:06:14;;;;;;;;;;;21.80;45.60;;;;;;5115829;27;19928;-41
2022/01/12 10:08:42;;;;;;;;;;;21.80;45.60;;;;;;5117543;27;19923;-43
2022/01/12 10:11:14;;;;;;;;;;;21.90;45.60;;;;;;5113010;27;19930;-40
2022/01/12 10:13:41;;;;;;;;;;;21.90;45.60;;;;;;5117153;27;19923;-43
2022/01/12 10:16:15;;;;;;;;;;;21.90;45.50;;;;;;5116221;27;19930;-43
2022/01/12 10:18:50;;;;;;;;;;;21.90;45.40;;;;;;5115764;27;20006;-41
2022/01/12 10:21:26;;;;;;;;;;;21.90;45.40;;;;;;5114944;27;20302;-41
2022/01/12 10:23:59;;;;;;;;;;;22.00;45.40;;;;;;5114851;27;20407;-41
2022/01/12 10:26:30;;;;;;;;;;;22.00;45.40;;;;;;5114610;27;19946;-40
2022/01/12 10:29:05;;;;;;;;;;;22.00;45.40;;;;;;5116798;27;19927;-40
2022/01/12 10:31:50;;;;;;;;;;;22.00;45.30;;;;;;5114843;28;20291;-41
2022/01/12 10:34:19;;;;;;;;;;;22.00;45.30;;;;;;5115750;27;19923;-41
2022/01/12 10:36:47;;;;;;;;;;;22.00;45.20;;;;;;5115010;27;19992;-42
2022/01/12 10:39:15;;;;;;;;;;;22.00;45.20;;;;;;5114128;28;19927;-41
2022/01/12 10:41:52;;;;;;;;;;;22.10;45.20;;;;;;5114447;28;19924;-40
2022/01/12 10:44:23;;;;;;;;;;;22.10;45.20;;;;;;5115378;27;19942;-41
2022/01/12 10:47:01;;;;;;;;;;;22.10;45.20;;;;;;5133045;27;19927;-41
2022/01/12 10:49:30;;;;;;;;;;;22.10;45.10;;;;;;5113771;28;19924;-41
2022/01/12 10:51:57;;;;;;;;;;;22.10;45.10;;;;;;5131720;27;19948;-39
2022/01/12 10:54:24;;;;;;;;;;;22.10;45.00;;;;;;5113933;28;19928;-41
2022/01/12 10:56:52;;;;;;;;;;;22.10;45.00;;;;;;5130090;27;20423;-39
2022/01/12 10:59:20;;;;;;;;;;;22.10;45.00;;;;;;5132709;27;19970;-40
2022/01/12 11:01:47;;;;;;;;;;;22.20;45.00;;;;;;5118158;27;19923;-40
2022/01/12 11:04:14;;;;;;;;;;;22.20;44.90;;;;;;5114776;27;20011;-41
2022/01/12 11:06:41;;;;;;;;;;;22.20;44.90;;;;;;5113476;28;20379;-41
2022/01/12 11:09:08;;;;;;;;;;;22.20;44.80;;;;;;5126376;27;19927;-40
2022/01/12 11:11:35;;;;;;;;;;;22.20;44.80;;;;;;5120348;27;19923;-42
2022/01/12 11:14:03;;;;;;;;;;;22.20;44.80;;;;;;5115347;28;19949;-43
2022/01/12 11:16:30;;;;;;;;;;;22.30;44.80;;;;;;5115610;28;19931;-41
2022/01/12 11:19:01;;;;;;;;;;;22.20;44.70;;;;;;5097181;28;20022;-43
2022/01/12 11:21:41;;;;;;;;;;;22.30;44.80;;;;;;5114463;28;19923;-42
2022/01/12 11:24:15;;;;;;;;;;;22.30;44.70;;;;;;5114437;27;20006;-39
2022/01/12 11:26:49;;;;;;;;;;;22.30;44.70;;;;;;5115445;28;19931;-42
2022/01/12 11:29:26;;;;;;;;;;;22.30;44.70;;;;;;5116372;28;19928;-40
2022/01/12 11:32:04;;;;;;;;;;;22.30;44.70;;;;;;5114453;28;20436;-40
2022/01/12 11:34:31;;;;;;;;;;;22.30;44.60;;;;;;5115119;28;20367;-44
2022/01/12 11:36:58;;;;;;;;;;;22.30;44.60;;;;;;5114583;28;19924;-45
2022/01/12 11:39:30;;;;;;;;;;;22.30;44.60;;;;;;5115620;28;19975;-44
2022/01/12 11:41:58;;;;;;;;;;;22.40;44.60;;;;;;5113562;28;19930;-51
2022/01/12 11:44:28;;;;;;;;;;;22.40;44.60;;;;;;5121205;28;19976;-45
2022/01/12 11:46:56;;;;;;;;;;;22.40;44.50;;;;;;5124297;28;19947;-41
2022/01/12 11:49:39;;;;;;;;;;;22.40;44.40;;;;;;5115718;28;20282;-41
2022/01/12 11:52:15;;;;;;;;;;;22.50;44.40;;;;;;5114595;28;19927;-43
2022/01/12 11:54:45;;;;;;;;;;;22.50;44.40;;;;;;5115515;28;20273;-44
2022/01/12 11:57:18;;;;;;;;;;;22.50;44.30;;;;;;5114606;28;19927;-40
2022/01/12 11:59:53;;;;;;;;;;;22.50;44.30;;;;;;5113763;28;20422;-44
2022/01/12 12:02:30;;;;;;;;;;;22.50;44.20;;;;;;5112646;28;19924;-42
2022/01/12 12:04:58;;;;;;;;;;;22.50;44.20;;;;;;5114000;28;19946;-42
2022/01/12 12:07:26;;;;;;;;;;;22.50;44.20;;;;;;5114917;28;19924;-40
2022/01/12 12:09:57;;;;;;;;;;;22.50;44.20;;;;;;5114301;28;19931;-41
2022/01/12 12:12:29;;;;;;;;;;;22.50;44.20;;;;;;5113067;28;19947;-40
2022/01/12 12:14:58;;;;;;;;;;;22.50;44.20;;;;;;5112850;28;19949;-40
2022/01/12 12:17:26;;;;;;;;;;;22.50;44.20;;;;;;5116399;28;20294;-42
2022/01/12 12:19:54;;;;;;;;;;;22.50;44.20;;;;;;5129434;28;19923;-40
2022/01/12 12:22:22;;;;;;;;;;;22.50;44.30;;;;;;5112861;28;20341;-40
2022/01/12 12:24:53;;;;;;;;;;;22.50;44.20;;;;;;5117759;27;20002;-41
2022/01/12 12:27:21;;;;;;;;;;;22.50;44.30;;;;;;5135804;27;19930;-44
2022/01/12 12:29:49;;;;;;;;;;;22.50;44.20;;;;;;5118620;27;19946;-40
2022/01/12 12:32:18;;;;;;;;;;;22.50;44.30;;;;;;5136114;27;19927;-42
2022/01/12 12:34:45;;;;;;;;;;;22.50;44.20;;;;;;5116807;28;19931;-42
2022/01/12 12:37:14;;;;;;;;;;;22.50;44.20;;;;;;5116838;28;19930;-40
2022/01/12 12:39:43;;;;;;;;;;;22.50;44.20;;;;;;5117125;27;19985;-41
2022/01/12 12:42:15;;;;;;;;;;;22.50;44.20;;;;;;5117932;27;19924;-40
2022/01/12 12:44:42;;;;;;;;;;;22.50;44.20;;;;;;5134894;27;19931;-40
2022/01/12 12:47:13;;;;;;;;;;;22.50;44.20;;;;;;5133281;27;19937;-40
2022/01/12 12:49:48;;;;;;;;;;;22.50;44.20;;;;;;5135808;27;19923;-41
2022/01/12 12:52:25;;;;;;;;;;;22.50;44.20;;;;;;5118600;27;19927;-42
2022/01/12 12:54:53;;;;;;;;;;;22.50;44.20;;;;;;5118534;27;20349;-42
2022/01/12 12:57:23;;;;;;;;;;;22.50;44.20;;;;;;5115941;28;19930;-40
2022/01/12 13:00:08;;;;;;;;;;;22.50;44.20;;;;;;5116460;27;19925;-39
2022/01/12 13:02:37;;;;;;;;;;;22.50;44.20;;;;;;5117143;27;19928;-39
2022/01/12 13:05:05;;;;;;;;;;;22.50;44.20;;;;;;5115802;28;19924;-39
2022/01/12 13:07:39;;;;;;;;;;;22.50;44.20;;;;;;5116910;27;19971;-41
2022/01/12 13:10:09;;;;;;;;;;;22.50;44.10;;;;;;5118132;27;19930;-40
2022/01/12 13:12:40;;;;;;;;;;;22.50;44.10;;;;;;5115584;28;19948;-41
2022/01/12 13:15:10;;;;;;;;;;;22.50;44.10;;;;;;5117962;27;19924;-42
2022/01/12 13:17:39;;;;;;;;;;;22.50;44.10;;;;;;5117226;27;19924;-41
2022/01/12 13:22:40;;;;;;;;;;;22.50;44.10;;;;;;5118688;27;19924;-40
2022/01/12 13:25:12;;;;;;;;;;;22.50;44.10;;;;;;5116521;27;19924;-40
2022/01/12 13:27:39;;;;;;;;;;;22.50;44.10;;;;;;5115710;27;19924;-40
2022/01/12 13:30:08;;;;;;;;;;;22.50;44.10;;;;;;5117971;27;19923;-40
2022/01/12 13:32:37;;;;;;;;;;;22.50;44.10;;;;;;5116729;27;20690;-43
2022/01/12 13:35:08;;;;;;;;;;;22.50;44.10;;;;;;5116762;27;19931;-40
2022/01/12 13:37:35;;;;;;;;;;;22.50;44.10;;;;;;5116836;27;19934;-40
2022/01/12 13:40:12;;;;;;;;;;;22.50;44.10;;;;;;5116522;27;19973;-40
2022/01/12 13:42:49;;;;;;;;;;;22.50;44.10;;;;;;5098465;28;20406;-39
2022/01/12 13:45:21;;;;;;;;;;;22.50;44.10;;;;;;5117764;27;19951;-42
2022/01/12 13:47:53;;;;;;;;;;;22.50;44.10;;;;;;5114954;28;19976;-41
2022/01/12 13:50:26;;;;;;;;;;;22.50;44.10;;;;;;5117726;27;20260;-45
2022/01/12 13:52:54;;;;;;;;;;;22.50;44.10;;;;;;5118405;27;19939;-41
2022/01/12 13:55:21;;;;;;;;;;;22.50;44.10;;;;;;5097599;28;20318;-43
2022/01/12 13:57:55;;;;;;;;;;;22.50;44.10;;;;;;5115937;27;19923;-43
2022/01/12 14:00:22;;;;;;;;;;;22.50;44.10;;;;;;5115825;27;20311;-42
2022/01/12 14:02:49;;;;;;;;;;;22.50;44.10;;;;;;5114995;28;19930;-42
2022/01/12 14:05:19;;;;;;;;;;;22.50;44.20;;;;;;5116019;27;20027;-42
2022/01/12 14:07:59;;;;;;;;;;;22.50;44.20;;;;;;5119064;27;19931;-44
2022/01/12 14:10:31;;;;;;;;;;;22.50;44.20;;;;;;5129463;27;19931;-41
2022/01/12 14:12:58;;;;;;;;;;;22.50;44.10;;;;;;5117336;27;19924;-40
2022/01/12 14:15:27;;;;;;;;;;;22.50;44.10;;;;;;5117211;27;19927;-41
2022/01/12 14:17:54;;;;;;;;;;;22.50;44.20;;;;;;5133346;27;19931;-40
2022/01/12 14:20:36;;;;;;;;;;;22.50;44.20;;;;;;5131523;27;19923;-40
2022/01/12 14:23:05;;;;;;;;;;;22.50;44.20;;;;;;5114927;27;20264;-39
2022/01/12 14:25:41;;;;;;;;;;;22.50;44.20;;;;;;5116530;27;20010;-42
2022/01/12 14:28:10;;;;;;;;;;;22.50;44.20;;;;;;5115433;27;19931;-43
2022/01/12 14:30:38;;;;;;;;;;;22.50;44.20;;;;;;5115846;27;20006;-39
2022/01/12 14:33:05;;;;;;;;;;;22.50;44.10;;;;;;5114389;28;19930;-41
2022/01/12 14:35:32;;;;;;;;;;;22.50;44.20;;;;;;5115310;27;19932;-40
2022/01/12 14:37:59;;;;;;;;;;;22.50;44.10;;;;;;5114204;28;19931;-39
2022/01/12 14:40:32;;;;;;;;;;;22.50;44.20;;;;;;5115565;27;19928;-42
2022/01/12 14:43:00;;;;;;;;;;;22.50;44.20;;;;;;5114051;27;19972;-40
2022/01/12 14:45:29;;;;;;;;;;;22.50;44.20;;;;;;5115315;27;19924;-40
2022/01/12 14:47:57;;;;;;;;;;;22.50;44.20;;;;;;5114279;27;19923;-43
2022/01/12 14:50:25;;;;;;;;;;;22.50;44.20;;;;;;5114548;27;19924;-41
2022/01/12 14:52:54;;;;;;;;;;;22.50;44.20;;;;;;5114786;27;19924;-42
2022/01/12 14:55:42;;;;;;;;;;;22.50;44.20;;;;;;5116147;27;19931;-42
2022/01/12 14:58:09;;;;;;;;;;;22.50;44.20;;;;;;5112560;27;19930;-40
2022/01/12 15:00:36;;;;;;;;;;;22.50;44.20;;;;;;5117408;27;19924;-41
2022/01/12 15:03:06;;;;;;;;;;;22.50;44.20;;;;;;5115891;27;19924;-41
2022/01/12 15:05:34;;;;;;;;;;;22.50;44.20;;;;;;5115573;27;19924;-48
2022/01/12 15:08:02;;;;;;;;;;;22.50;44.20;;;;;;5113412;28;19923;-39
2022/01/12 15:10:30;;;;;;;;;;;22.50;44.20;;;;;;5114974;27;19936;-42
2022/01/12 15:13:05;;;;;;;;;;;22.50;44.20;;;;;;5114986;28;20014;-41
2022/01/12 15:15:32;;;;;;;;;;;22.40;44.20;;;;;;5114667;28;19928;-41
2022/01/12 15:17:59;;;;;;;;;;;22.40;44.20;;;;;;5113186;28;19946;-41
2022/01/12 15:20:28;;;;;;;;;;;22.40;44.20;;;;;;5113124;28;19931;-42
2022/01/12 15:22:55;;;;;;;;;;;22.40;44.20;;;;;;5113008;28;20326;-41
2022/01/12 15:25:24;;;;;;;;;;;22.40;44.20;;;;;;5113283;28;20375;-40
2022/01/12 15:27:52;;;;;;;;;;;22.40;44.30;;;;;;5114540;28;19970;-41
2022/01/12 15:30:20;;;;;;;;;;;22.40;44.30;;;;;;5095036;28;20395;-45
2022/01/12 15:32:48;;;;;;;;;;;22.40;44.40;;;;;;5113295;28;19923;-41
2022/01/12 15:35:16;;;;;;;;;;;22.40;44.40;;;;;;5114464;28;19928;-41
2022/01/12 15:37:44;;;;;;;;;;;22.40;44.50;;;;;;5118479;28;19924;-39
2022/01/12 15:40:11;;;;;;;;;;;22.40;44.50;;;;;;5129228;27;19930;-40
2022/01/12 15:42:39;;;;;;;;;;;22.40;44.50;;;;;;5114086;28;19931;-40